sensor_id;sensor_type;location;lat;lon;timestamp;P1;durP1;ratioP1;P2;durP2;ratioP2
38843;SDS011;24596;48.080;8.362;2022-07-24T00:02:22;13.98;;;10.85;;
38843;SDS011;24596;48.080;8.362;2022-07-24T00:04:47;15.45;;;10.38;;
38843;SDS011;24596;48.080;8.362;2022-07-24T00:07:12;15.05;;;9.80;;
38843;SDS011;24596;48.080;8.362;2022-07-24T00:09:38;15.25;;;10.77;;
38843;SDS011;24596;48.080;8.362;2022-07-24T00:12:03;14.02;;;10.73;;
38843;SDS011;24596;48.080;8.362;2022-07-24T00:14:28;13.85;;;10.50;;
38843;SDS011;24596;48.080;8.362;2022-07-24T00:16:54;15.57;;;11.18;;
38843;SDS011;24596;48.080;8.362;2022-07-24T00:19:19;15.25;;;10.75;;
38843;SDS011;24596;48.080;8.362;2022-07-24T00:21:44;17.65;;;10.65;;
38843;SDS011;24596;48.080;8.362;2022-07-24T00:24:09;14.93;;;11.13;;
38843;SDS011;24596;48.080;8.362;2022-07-24T00:26:35;16.02;;;10.85;;
38843;SDS011;24596;48.080;8.362;2022-07-24T00:29:00;15.30;;;11.93;;
38843;SDS011;24596;48.080;8.362;2022-07-24T00:31:25;15.38;;;10.68;;
38843;SDS011;24596;48.080;8.362;2022-07-24T00:33:51;13.18;;;10.52;;
38843;SDS011;24596;48.080;8.362;2022-07-24T00:36:16;14.52;;;9.85;;
38843;SDS011;24596;48.080;8.362;2022-07-24T00:38:41;13.77;;;10.85;;
38843;SDS011;24596;48.080;8.362;2022-07-24T00:41:07;12.65;;;10.18;;
38843;SDS011;24596;48.080;8.362;2022-07-24T00:43:32;13.75;;;10.38;;
38843;SDS011;24596;48.080;8.362;2022-07-24T00:45:57;13.93;;;11.07;;
38843;SDS011;24596;48.080;8.362;2022-07-24T00:48:22;15.88;;;11.18;;
38843;SDS011;24596;48.080;8.362;2022-07-24T00:50:48;15.52;;;11.73;;
38843;SDS011;24596;48.080;8.362;2022-07-24T00:53:13;19.63;;;12.32;;
38843;SDS011;24596;48.080;8.362;2022-07-24T00:55:38;13.88;;;11.15;;
38843;SDS011;24596;48.080;8.362;2022-07-24T00:58:04;14.30;;;10.80;;
38843;SDS011;24596;48.080;8.362;2022-07-24T01:00:30;16.90;;;10.88;;
38843;SDS011;24596;48.080;8.362;2022-07-24T01:02:55;18.25;;;11.88;;
38843;SDS011;24596;48.080;8.362;2022-07-24T01:05:20;12.98;;;10.25;;
38843;SDS011;24596;48.080;8.362;2022-07-24T01:07:45;13.93;;;10.65;;
38843;SDS011;24596;48.080;8.362;2022-07-24T01:10:11;16.15;;;10.68;;
38843;SDS011;24596;48.080;8.362;2022-07-24T01:12:37;14.60;;;10.30;;
38843;SDS011;24596;48.080;8.362;2022-07-24T01:15:03;15.30;;;10.73;;
38843;SDS011;24596;48.080;8.362;2022-07-24T01:17:29;17.10;;;11.68;;
38843;SDS011;24596;48.080;8.362;2022-07-24T01:19:55;14.98;;;11.27;;
38843;SDS011;24596;48.080;8.362;2022-07-24T01:22:20;16.25;;;11.13;;
38843;SDS011;24596;48.080;8.362;2022-07-24T01:24:46;18.40;;;11.15;;
38843;SDS011;24596;48.080;8.362;2022-07-24T01:27:14;15.25;;;12.18;;
38843;SDS011;24596;48.080;8.362;2022-07-24T01:29:40;16.45;;;11.30;;
38843;SDS011;24596;48.080;8.362;2022-07-24T01:32:05;17.98;;;11.68;;
38843;SDS011;24596;48.080;8.362;2022-07-24T01:34:30;14.90;;;10.93;;
38843;SDS011;24596;48.080;8.362;2022-07-24T01:36:55;14.50;;;11.15;;
38843;SDS011;24596;48.080;8.362;2022-07-24T01:39:21;14.68;;;12.02;;
38843;SDS011;24596;48.080;8.362;2022-07-24T01:41:47;13.90;;;11.32;;
38843;SDS011;24596;48.080;8.362;2022-07-24T01:44:12;16.23;;;11.25;;
38843;SDS011;24596;48.080;8.362;2022-07-24T01:46:38;17.73;;;11.82;;
38843;SDS011;24596;48.080;8.362;2022-07-24T01:49:03;16.20;;;11.30;;
38843;SDS011;24596;48.080;8.362;2022-07-24T01:51:28;15.60;;;11.77;;
38843;SDS011;24596;48.080;8.362;2022-07-24T01:53:53;15.20;;;11.07;;
38843;SDS011;24596;48.080;8.362;2022-07-24T01:56:18;17.60;;;10.70;;
38843;SDS011;24596;48.080;8.362;2022-07-24T01:58:44;13.93;;;10.55;;
38843;SDS011;24596;48.080;8.362;2022-07-24T02:01:09;14.15;;;10.63;;
38843;SDS011;24596;48.080;8.362;2022-07-24T02:03:34;13.60;;;10.15;;
38843;SDS011;24596;48.080;8.362;2022-07-24T02:06:02;14.23;;;11.05;;
38843;SDS011;24596;48.080;8.362;2022-07-24T02:08:28;15.93;;;10.88;;
38843;SDS011;24596;48.080;8.362;2022-07-24T02:10:53;13.80;;;10.68;;
38843;SDS011;24596;48.080;8.362;2022-07-24T02:13:18;15.52;;;11.23;;
38843;SDS011;24596;48.080;8.362;2022-07-24T02:15:43;15.30;;;11.10;;
38843;SDS011;24596;48.080;8.362;2022-07-24T02:18:09;14.63;;;10.70;;
38843;SDS011;24596;48.080;8.362;2022-07-24T02:20:34;16.38;;;11.48;;
38843;SDS011;24596;48.080;8.362;2022-07-24T02:22:59;17.50;;;11.20;;
38843;SDS011;24596;48.080;8.362;2022-07-24T02:25:24;16.85;;;11.18;;
38843;SDS011;24596;48.080;8.362;2022-07-24T02:27:50;16.85;;;11.35;;
38843;SDS011;24596;48.080;8.362;2022-07-24T02:30:16;13.98;;;10.98;;
38843;SDS011;24596;48.080;8.362;2022-07-24T02:32:41;14.80;;;10.70;;
38843;SDS011;24596;48.080;8.362;2022-07-24T02:35:07;14.35;;;11.20;;
38843;SDS011;24596;48.080;8.362;2022-07-24T02:37:35;17.48;;;11.15;;
38843;SDS011;24596;48.080;8.362;2022-07-24T02:40:00;14.30;;;11.00;;
38843;SDS011;24596;48.080;8.362;2022-07-24T02:42:25;14.18;;;10.52;;
38843;SDS011;24596;48.080;8.362;2022-07-24T02:44:50;15.48;;;11.15;;
38843;SDS011;24596;48.080;8.362;2022-07-24T02:47:16;14.35;;;10.85;;
38843;SDS011;24596;48.080;8.362;2022-07-24T02:49:41;21.20;;;12.07;;
38843;SDS011;24596;48.080;8.362;2022-07-24T02:52:06;16.13;;;12.60;;
38843;SDS011;24596;48.080;8.362;2022-07-24T02:54:31;16.77;;;12.50;;
38843;SDS011;24596;48.080;8.362;2022-07-24T02:56:56;13.93;;;10.55;;
38843;SDS011;24596;48.080;8.362;2022-07-24T02:59:22;16.67;;;10.65;;
38843;SDS011;24596;48.080;8.362;2022-07-24T03:01:47;13.98;;;11.15;;
38843;SDS011;24596;48.080;8.362;2022-07-24T03:04:12;14.43;;;11.05;;
38843;SDS011;24596;48.080;8.362;2022-07-24T03:06:37;16.75;;;11.68;;
38843;SDS011;24596;48.080;8.362;2022-07-24T03:09:03;14.38;;;10.40;;
38843;SDS011;24596;48.080;8.362;2022-07-24T03:11:28;14.25;;;10.38;;
38843;SDS011;24596;48.080;8.362;2022-07-24T03:13:54;16.90;;;12.48;;
38843;SDS011;24596;48.080;8.362;2022-07-24T03:16:19;17.08;;;11.27;;
38843;SDS011;24596;48.080;8.362;2022-07-24T03:18:44;18.55;;;12.80;;
38843;SDS011;24596;48.080;8.362;2022-07-24T03:21:13;17.30;;;11.52;;
38843;SDS011;24596;48.080;8.362;2022-07-24T03:23:39;16.13;;;10.90;;
38843;SDS011;24596;48.080;8.362;2022-07-24T03:26:04;13.40;;;10.73;;
38843;SDS011;24596;48.080;8.362;2022-07-24T03:28:29;14.20;;;10.95;;
38843;SDS011;24596;48.080;8.362;2022-07-24T03:30:55;15.95;;;11.80;;
38843;SDS011;24596;48.080;8.362;2022-07-24T03:33:20;17.42;;;12.20;;
38843;SDS011;24596;48.080;8.362;2022-07-24T03:35:45;15.18;;;11.23;;
38843;SDS011;24596;48.080;8.362;2022-07-24T03:38:10;14.70;;;11.65;;
38843;SDS011;24596;48.080;8.362;2022-07-24T03:40:36;16.73;;;11.32;;
38843;SDS011;24596;48.080;8.362;2022-07-24T03:43:01;16.40;;;11.45;;
38843;SDS011;24596;48.080;8.362;2022-07-24T03:45:27;22.17;;;12.38;;
38843;SDS011;24596;48.080;8.362;2022-07-24T03:47:52;19.20;;;13.20;;
38843;SDS011;24596;48.080;8.362;2022-07-24T03:50:18;20.00;;;12.93;;
38843;SDS011;24596;48.080;8.362;2022-07-24T03:52:43;16.20;;;12.10;;
38843;SDS011;24596;48.080;8.362;2022-07-24T03:55:08;16.52;;;11.77;;
38843;SDS011;24596;48.080;8.362;2022-07-24T03:57:33;16.10;;;11.98;;
38843;SDS011;24596;48.080;8.362;2022-07-24T03:59:59;19.08;;;12.23;;
38843;SDS011;24596;48.080;8.362;2022-07-24T04:02:24;14.50;;;11.27;;
38843;SDS011;24596;48.080;8.362;2022-07-24T04:04:49;16.40;;;11.27;;
38843;SDS011;24596;48.080;8.362;2022-07-24T04:07:15;16.17;;;11.85;;
38843;SDS011;24596;48.080;8.362;2022-07-24T04:09:40;17.30;;;11.95;;
38843;SDS011;24596;48.080;8.362;2022-07-24T04:12:05;19.08;;;11.88;;
38843;SDS011;24596;48.080;8.362;2022-07-24T04:14:30;17.77;;;11.52;;
38843;SDS011;24596;48.080;8.362;2022-07-24T04:16:57;14.38;;;11.27;;
38843;SDS011;24596;48.080;8.362;2022-07-24T04:19:22;14.63;;;11.15;;
38843;SDS011;24596;48.080;8.362;2022-07-24T04:21:47;16.83;;;11.52;;
38843;SDS011;24596;48.080;8.362;2022-07-24T04:24:13;15.32;;;10.73;;
38843;SDS011;24596;48.080;8.362;2022-07-24T04:26:38;13.05;;;10.40;;
38843;SDS011;24596;48.080;8.362;2022-07-24T04:29:03;14.32;;;10.70;;
38843;SDS011;24596;48.080;8.362;2022-07-24T04:31:28;14.95;;;10.55;;
38843;SDS011;24596;48.080;8.362;2022-07-24T04:33:53;15.02;;;10.68;;
38843;SDS011;24596;48.080;8.362;2022-07-24T04:36:19;15.27;;;10.85;;
38843;SDS011;24596;48.080;8.362;2022-07-24T04:38:44;14.55;;;10.85;;
38843;SDS011;24596;48.080;8.362;2022-07-24T04:41:09;18.85;;;10.95;;
38843;SDS011;24596;48.080;8.362;2022-07-24T04:43:34;15.40;;;11.90;;
38843;SDS011;24596;48.080;8.362;2022-07-24T04:46:00;18.27;;;11.93;;
38843;SDS011;24596;48.080;8.362;2022-07-24T04:48:25;44.35;;;26.13;;
38843;SDS011;24596;48.080;8.362;2022-07-24T04:50:51;30.65;;;20.45;;
38843;SDS011;24596;48.080;8.362;2022-07-24T04:53:16;25.90;;;16.15;;
38843;SDS011;24596;48.080;8.362;2022-07-24T04:55:41;25.90;;;18.55;;
38843;SDS011;24596;48.080;8.362;2022-07-24T04:58:07;26.55;;;18.73;;
38843;SDS011;24596;48.080;8.362;2022-07-24T05:00:32;19.60;;;13.75;;
38843;SDS011;24596;48.080;8.362;2022-07-24T05:02:57;18.63;;;13.30;;
38843;SDS011;24596;48.080;8.362;2022-07-24T05:05:22;20.38;;;13.95;;
38843;SDS011;24596;48.080;8.362;2022-07-24T05:07:47;39.60;;;28.05;;
38843;SDS011;24596;48.080;8.362;2022-07-24T05:10:13;39.72;;;27.80;;
38843;SDS011;24596;48.080;8.362;2022-07-24T05:12:38;17.77;;;12.75;;
38843;SDS011;24596;48.080;8.362;2022-07-24T05:15:04;18.90;;;12.93;;
38843;SDS011;24596;48.080;8.362;2022-07-24T05:17:29;14.98;;;11.68;;
38843;SDS011;24596;48.080;8.362;2022-07-24T05:19:54;13.75;;;10.70;;
38843;SDS011;24596;48.080;8.362;2022-07-24T05:22:20;16.50;;;11.65;;
38843;SDS011;24596;48.080;8.362;2022-07-24T05:24:45;22.60;;;16.45;;
38843;SDS011;24596;48.080;8.362;2022-07-24T05:27:10;37.25;;;24.08;;
38843;SDS011;24596;48.080;8.362;2022-07-24T05:29:35;50.28;;;35.63;;
38843;SDS011;24596;48.080;8.362;2022-07-24T05:32:00;95.28;;;57.58;;
38843;SDS011;24596;48.080;8.362;2022-07-24T05:34:26;113.90;;;74.97;;
38843;SDS011;24596;48.080;8.362;2022-07-24T05:36:51;99.20;;;70.32;;
38843;SDS011;24596;48.080;8.362;2022-07-24T05:39:16;77.72;;;58.40;;
38843;SDS011;24596;48.080;8.362;2022-07-24T05:41:41;50.00;;;40.22;;
38843;SDS011;24596;48.080;8.362;2022-07-24T05:44:06;29.93;;;23.70;;
38843;SDS011;24596;48.080;8.362;2022-07-24T05:46:32;17.95;;;13.15;;
38843;SDS011;24596;48.080;8.362;2022-07-24T05:48:57;15.60;;;12.13;;
38843;SDS011;24596;48.080;8.362;2022-07-24T05:51:22;17.57;;;11.40;;
38843;SDS011;24596;48.080;8.362;2022-07-24T05:53:48;19.92;;;12.45;;
38843;SDS011;24596;48.080;8.362;2022-07-24T05:56:13;16.70;;;11.18;;
38843;SDS011;24596;48.080;8.362;2022-07-24T05:58:38;17.20;;;10.80;;
38843;SDS011;24596;48.080;8.362;2022-07-24T06:01:03;15.40;;;9.93;;
38843;SDS011;24596;48.080;8.362;2022-07-24T06:03:29;12.98;;;9.70;;
38843;SDS011;24596;48.080;8.362;2022-07-24T06:05:54;11.55;;;8.60;;
38843;SDS011;24596;48.080;8.362;2022-07-24T06:08:19;12.88;;;9.07;;
38843;SDS011;24596;48.080;8.362;2022-07-24T06:10:44;13.60;;;10.32;;
38843;SDS011;24596;48.080;8.362;2022-07-24T06:13:10;12.18;;;10.05;;
38843;SDS011;24596;48.080;8.362;2022-07-24T06:15:35;13.05;;;9.85;;
38843;SDS011;24596;48.080;8.362;2022-07-24T06:18:00;13.32;;;9.35;;
38843;SDS011;24596;48.080;8.362;2022-07-24T06:20:25;13.27;;;8.13;;
38843;SDS011;24596;48.080;8.362;2022-07-24T06:22:50;13.70;;;9.00;;
38843;SDS011;24596;48.080;8.362;2022-07-24T06:25:16;13.82;;;8.68;;
38843;SDS011;24596;48.080;8.362;2022-07-24T06:27:50;15.63;;;8.10;;
38843;SDS011;24596;48.080;8.362;2022-07-24T06:30:16;11.82;;;8.55;;
38843;SDS011;24596;48.080;8.362;2022-07-24T06:32:42;12.50;;;7.63;;
38843;SDS011;24596;48.080;8.362;2022-07-24T06:35:07;11.73;;;7.35;;
38843;SDS011;24596;48.080;8.362;2022-07-24T06:37:32;13.75;;;8.00;;
38843;SDS011;24596;48.080;8.362;2022-07-24T06:39:58;10.52;;;6.80;;
38843;SDS011;24596;48.080;8.362;2022-07-24T06:42:23;15.18;;;6.60;;
38843;SDS011;24596;48.080;8.362;2022-07-24T06:44:48;10.90;;;7.20;;
38843;SDS011;24596;48.080;8.362;2022-07-24T06:47:14;10.30;;;6.90;;
38843;SDS011;24596;48.080;8.362;2022-07-24T06:49:39;12.57;;;6.88;;
38843;SDS011;24596;48.080;8.362;2022-07-24T06:52:04;10.33;;;6.77;;
38843;SDS011;24596;48.080;8.362;2022-07-24T06:54:29;11.77;;;6.87;;
38843;SDS011;24596;48.080;8.362;2022-07-24T06:56:54;10.80;;;7.07;;
38843;SDS011;24596;48.080;8.362;2022-07-24T06:59:20;10.63;;;6.97;;
38843;SDS011;24596;48.080;8.362;2022-07-24T07:01:45;9.75;;;6.80;;
38843;SDS011;24596;48.080;8.362;2022-07-24T07:04:10;9.67;;;6.67;;
38843;SDS011;24596;48.080;8.362;2022-07-24T07:06:35;11.23;;;6.43;;
38843;SDS011;24596;48.080;8.362;2022-07-24T07:09:01;8.50;;;6.03;;
38843;SDS011;24596;48.080;8.362;2022-07-24T07:11:26;12.75;;;6.60;;
38843;SDS011;24596;48.080;8.362;2022-07-24T07:13:51;10.18;;;6.65;;
38843;SDS011;24596;48.080;8.362;2022-07-24T07:16:17;11.38;;;6.38;;
38843;SDS011;24596;48.080;8.362;2022-07-24T07:18:42;10.57;;;6.67;;
38843;SDS011;24596;48.080;8.362;2022-07-24T07:21:07;10.63;;;6.40;;
38843;SDS011;24596;48.080;8.362;2022-07-24T07:23:32;9.88;;;6.57;;
38843;SDS011;24596;48.080;8.362;2022-07-24T07:25:58;13.70;;;6.70;;
38843;SDS011;24596;48.080;8.362;2022-07-24T07:28:23;9.38;;;6.25;;
38843;SDS011;24596;48.080;8.362;2022-07-24T07:30:48;11.27;;;7.23;;
38843;SDS011;24596;48.080;8.362;2022-07-24T07:33:13;11.20;;;6.80;;
38843;SDS011;24596;48.080;8.362;2022-07-24T07:35:39;10.52;;;7.05;;
38843;SDS011;24596;48.080;8.362;2022-07-24T07:38:04;10.43;;;8.10;;
38843;SDS011;24596;48.080;8.362;2022-07-24T07:40:29;12.07;;;7.93;;
38843;SDS011;24596;48.080;8.362;2022-07-24T07:42:54;10.23;;;6.70;;
38843;SDS011;24596;48.080;8.362;2022-07-24T07:45:20;9.35;;;7.13;;
38843;SDS011;24596;48.080;8.362;2022-07-24T07:47:45;10.27;;;7.57;;
38843;SDS011;24596;48.080;8.362;2022-07-24T07:50:10;9.07;;;6.68;;
38843;SDS011;24596;48.080;8.362;2022-07-24T07:52:36;10.05;;;7.57;;
38843;SDS011;24596;48.080;8.362;2022-07-24T07:55:01;11.77;;;7.50;;
38843;SDS011;24596;48.080;8.362;2022-07-24T07:57:26;11.05;;;7.47;;
38843;SDS011;24596;48.080;8.362;2022-07-24T07:59:52;10.48;;;7.25;;
38843;SDS011;24596;48.080;8.362;2022-07-24T08:02:17;13.07;;;7.20;;
38843;SDS011;24596;48.080;8.362;2022-07-24T08:04:42;10.60;;;7.67;;
38843;SDS011;24596;48.080;8.362;2022-07-24T08:07:07;9.70;;;7.07;;
38843;SDS011;24596;48.080;8.362;2022-07-24T08:09:33;12.57;;;7.25;;
38843;SDS011;24596;48.080;8.362;2022-07-24T08:11:58;9.90;;;6.68;;
38843;SDS011;24596;48.080;8.362;2022-07-24T08:14:23;12.63;;;7.30;;
38843;SDS011;24596;48.080;8.362;2022-07-24T08:16:48;9.65;;;6.88;;
38843;SDS011;24596;48.080;8.362;2022-07-24T08:19:13;10.90;;;7.13;;
38843;SDS011;24596;48.080;8.362;2022-07-24T08:21:39;11.87;;;7.43;;
38843;SDS011;24596;48.080;8.362;2022-07-24T08:24:04;10.23;;;7.47;;
38843;SDS011;24596;48.080;8.362;2022-07-24T08:26:30;10.63;;;6.88;;
38843;SDS011;24596;48.080;8.362;2022-07-24T08:28:56;10.07;;;6.80;;
38843;SDS011;24596;48.080;8.362;2022-07-24T08:31:22;9.63;;;6.95;;
38843;SDS011;24596;48.080;8.362;2022-07-24T08:33:47;9.27;;;7.17;;
38843;SDS011;24596;48.080;8.362;2022-07-24T08:36:12;10.73;;;6.70;;
38843;SDS011;24596;48.080;8.362;2022-07-24T08:38:37;10.80;;;6.97;;
38843;SDS011;24596;48.080;8.362;2022-07-24T08:41:03;9.77;;;6.68;;
38843;SDS011;24596;48.080;8.362;2022-07-24T08:43:28;9.38;;;6.90;;
38843;SDS011;24596;48.080;8.362;2022-07-24T08:45:53;10.03;;;7.27;;
38843;SDS011;24596;48.080;8.362;2022-07-24T08:48:19;9.10;;;6.93;;
38843;SDS011;24596;48.080;8.362;2022-07-24T08:50:45;11.93;;;7.40;;
38843;SDS011;24596;48.080;8.362;2022-07-24T08:53:11;10.20;;;7.55;;
38843;SDS011;24596;48.080;8.362;2022-07-24T08:55:36;11.10;;;7.15;;
38843;SDS011;24596;48.080;8.362;2022-07-24T08:58:01;12.00;;;7.53;;
38843;SDS011;24596;48.080;8.362;2022-07-24T09:00:28;10.48;;;6.75;;
38843;SDS011;24596;48.080;8.362;2022-07-24T09:02:53;8.68;;;6.60;;
38843;SDS011;24596;48.080;8.362;2022-07-24T09:05:19;9.38;;;7.25;;
38843;SDS011;24596;48.080;8.362;2022-07-24T09:07:44;9.85;;;7.05;;
38843;SDS011;24596;48.080;8.362;2022-07-24T09:10:11;11.48;;;7.10;;
38843;SDS011;24596;48.080;8.362;2022-07-24T09:12:37;9.80;;;6.63;;
38843;SDS011;24596;48.080;8.362;2022-07-24T09:17:46;13.13;;;6.90;;
38843;SDS011;24596;48.080;8.362;2022-07-24T09:20:11;8.98;;;6.68;;
38843;SDS011;24596;48.080;8.362;2022-07-24T09:22:37;10.37;;;6.93;;
38843;SDS011;24596;48.080;8.362;2022-07-24T09:25:04;9.93;;;6.97;;
38843;SDS011;24596;48.080;8.362;2022-07-24T09:27:29;10.48;;;6.93;;
38843;SDS011;24596;48.080;8.362;2022-07-24T09:29:55;9.45;;;6.85;;
38843;SDS011;24596;48.080;8.362;2022-07-24T09:32:23;10.30;;;7.20;;
38843;SDS011;24596;48.080;8.362;2022-07-24T09:34:50;9.15;;;6.55;;
38843;SDS011;24596;48.080;8.362;2022-07-24T09:37:15;10.30;;;6.72;;
38843;SDS011;24596;48.080;8.362;2022-07-24T09:39:41;9.93;;;6.45;;
38843;SDS011;24596;48.080;8.362;2022-07-24T09:42:06;8.65;;;6.80;;
38843;SDS011;24596;48.080;8.362;2022-07-24T09:44:32;13.60;;;6.68;;
38843;SDS011;24596;48.080;8.362;2022-07-24T09:47:01;10.18;;;6.50;;
38843;SDS011;24596;48.080;8.362;2022-07-24T09:49:27;10.35;;;6.32;;
38843;SDS011;24596;48.080;8.362;2022-07-24T09:54:29;15.63;;;9.02;;
38843;SDS011;24596;48.080;8.362;2022-07-24T09:57:00;14.52;;;9.60;;
38843;SDS011;24596;48.080;8.362;2022-07-24T09:59:39;12.98;;;7.72;;
38843;SDS011;24596;48.080;8.362;2022-07-24T10:02:05;9.50;;;6.47;;
38843;SDS011;24596;48.080;8.362;2022-07-24T10:04:31;9.60;;;6.10;;
38843;SDS011;24596;48.080;8.362;2022-07-24T10:06:59;11.15;;;7.18;;
38843;SDS011;24596;48.080;8.362;2022-07-24T10:09:27;9.35;;;6.65;;
38843;SDS011;24596;48.080;8.362;2022-07-24T10:11:54;8.75;;;6.68;;
38843;SDS011;24596;48.080;8.362;2022-07-24T10:14:21;10.65;;;6.90;;
38843;SDS011;24596;48.080;8.362;2022-07-24T10:16:47;12.45;;;6.35;;
38843;SDS011;24596;48.080;8.362;2022-07-24T10:19:17;9.35;;;6.63;;
38843;SDS011;24596;48.080;8.362;2022-07-24T10:21:53;11.15;;;6.70;;
38843;SDS011;24596;48.080;8.362;2022-07-24T10:26:45;9.43;;;6.33;;
38843;SDS011;24596;48.080;8.362;2022-07-24T10:29:11;8.13;;;6.30;;
38843;SDS011;24596;48.080;8.362;2022-07-24T10:31:38;11.45;;;6.45;;
38843;SDS011;24596;48.080;8.362;2022-07-24T10:34:05;10.32;;;6.78;;
38843;SDS011;24596;48.080;8.362;2022-07-24T10:36:32;10.70;;;6.32;;
38843;SDS011;24596;48.080;8.362;2022-07-24T10:39:00;7.60;;;5.55;;
38843;SDS011;24596;48.080;8.362;2022-07-24T10:41:28;8.88;;;5.82;;
38843;SDS011;24596;48.080;8.362;2022-07-24T10:47:21;9.43;;;6.28;;
38843;SDS011;24596;48.080;8.362;2022-07-24T10:52:10;8.65;;;6.65;;
38843;SDS011;24596;48.080;8.362;2022-07-24T10:54:36;8.27;;;6.07;;
38843;SDS011;24596;48.080;8.362;2022-07-24T10:57:01;9.52;;;6.22;;
38843;SDS011;24596;48.080;8.362;2022-07-24T10:59:34;7.47;;;6.25;;
38843;SDS011;24596;48.080;8.362;2022-07-24T11:04:44;10.45;;;6.82;;
38843;SDS011;24596;48.080;8.362;2022-07-24T11:07:10;8.57;;;5.97;;
38843;SDS011;24596;48.080;8.362;2022-07-24T11:09:58;8.65;;;6.35;;
38843;SDS011;24596;48.080;8.362;2022-07-24T11:12:28;8.13;;;5.72;;
38843;SDS011;24596;48.080;8.362;2022-07-24T11:14:55;8.18;;;5.78;;
38843;SDS011;24596;48.080;8.362;2022-07-24T11:17:48;8.32;;;5.82;;
38843;SDS011;24596;48.080;8.362;2022-07-24T11:20:20;8.27;;;5.75;;
38843;SDS011;24596;48.080;8.362;2022-07-24T11:22:52;8.35;;;6.47;;
38843;SDS011;24596;48.080;8.362;2022-07-24T11:25:21;10.75;;;6.60;;
38843;SDS011;24596;48.080;8.362;2022-07-24T11:30:16;10.23;;;5.78;;
38843;SDS011;24596;48.080;8.362;2022-07-24T11:32:42;8.73;;;6.20;;
38843;SDS011;24596;48.080;8.362;2022-07-24T11:35:07;9.05;;;6.30;;
38843;SDS011;24596;48.080;8.362;2022-07-24T11:37:36;9.93;;;5.97;;
38843;SDS011;24596;48.080;8.362;2022-07-24T11:40:03;9.32;;;6.10;;
38843;SDS011;24596;48.080;8.362;2022-07-24T11:42:30;8.00;;;5.70;;
38843;SDS011;24596;48.080;8.362;2022-07-24T11:44:55;9.77;;;6.00;;
38843;SDS011;24596;48.080;8.362;2022-07-24T11:47:21;9.40;;;6.43;;
38843;SDS011;24596;48.080;8.362;2022-07-24T11:49:50;10.65;;;6.28;;
38843;SDS011;24596;48.080;8.362;2022-07-24T11:52:25;7.82;;;6.07;;
38843;SDS011;24596;48.080;8.362;2022-07-24T11:54:52;9.70;;;5.63;;
38843;SDS011;24596;48.080;8.362;2022-07-24T11:57:21;8.68;;;6.53;;
38843;SDS011;24596;48.080;8.362;2022-07-24T11:59:48;10.57;;;6.40;;
38843;SDS011;24596;48.080;8.362;2022-07-24T12:02:13;10.45;;;6.95;;
38843;SDS011;24596;48.080;8.362;2022-07-24T12:04:39;9.18;;;6.10;;
38843;SDS011;24596;48.080;8.362;2022-07-24T12:07:05;9.55;;;6.15;;
38843;SDS011;24596;48.080;8.362;2022-07-24T12:09:31;8.15;;;5.85;;
38843;SDS011;24596;48.080;8.362;2022-07-24T12:11:56;8.90;;;6.23;;
38843;SDS011;24596;48.080;8.362;2022-07-24T12:14:21;8.55;;;6.28;;
38843;SDS011;24596;48.080;8.362;2022-07-24T12:16:54;8.73;;;5.90;;
38843;SDS011;24596;48.080;8.362;2022-07-24T12:19:21;7.93;;;5.72;;
38843;SDS011;24596;48.080;8.362;2022-07-24T12:21:47;9.27;;;6.07;;
38843;SDS011;24596;48.080;8.362;2022-07-24T12:24:13;10.75;;;5.78;;
38843;SDS011;24596;48.080;8.362;2022-07-24T12:26:48;7.93;;;5.68;;
38843;SDS011;24596;48.080;8.362;2022-07-24T12:29:14;7.47;;;5.55;;
38843;SDS011;24596;48.080;8.362;2022-07-24T12:31:39;8.30;;;6.32;;
38843;SDS011;24596;48.080;8.362;2022-07-24T12:34:04;8.73;;;5.90;;
38843;SDS011;24596;48.080;8.362;2022-07-24T12:36:30;11.13;;;6.20;;
38843;SDS011;24596;48.080;8.362;2022-07-24T12:38:55;9.93;;;6.30;;
38843;SDS011;24596;48.080;8.362;2022-07-24T12:41:22;9.75;;;6.05;;
38843;SDS011;24596;48.080;8.362;2022-07-24T12:46:17;8.07;;;5.93;;
38843;SDS011;24596;48.080;8.362;2022-07-24T12:51:27;11.32;;;6.05;;
38843;SDS011;24596;48.080;8.362;2022-07-24T12:54:07;7.90;;;5.40;;
38843;SDS011;24596;48.080;8.362;2022-07-24T12:56:33;9.02;;;5.88;;
38843;SDS011;24596;48.080;8.362;2022-07-24T12:58:59;9.60;;;5.87;;
38843;SDS011;24596;48.080;8.362;2022-07-24T13:01:27;8.55;;;5.90;;
38843;SDS011;24596;48.080;8.362;2022-07-24T13:03:53;7.20;;;5.25;;
38843;SDS011;24596;48.080;8.362;2022-07-24T13:06:18;7.60;;;5.55;;
38843;SDS011;24596;48.080;8.362;2022-07-24T13:08:43;11.20;;;5.80;;
38843;SDS011;24596;48.080;8.362;2022-07-24T13:11:18;7.60;;;5.77;;
38843;SDS011;24596;48.080;8.362;2022-07-24T13:13:43;8.48;;;6.28;;
38843;SDS011;24596;48.080;8.362;2022-07-24T13:16:08;10.20;;;5.67;;
38843;SDS011;24596;48.080;8.362;2022-07-24T13:18:33;8.80;;;5.67;;
38843;SDS011;24596;48.080;8.362;2022-07-24T13:20:58;8.03;;;5.73;;
38843;SDS011;24596;48.080;8.362;2022-07-24T13:23:24;9.33;;;6.63;;
38843;SDS011;24596;48.080;8.362;2022-07-24T13:25:49;8.63;;;6.00;;
38843;SDS011;24596;48.080;8.362;2022-07-24T13:28:14;7.38;;;5.65;;
38843;SDS011;24596;48.080;8.362;2022-07-24T13:30:39;8.23;;;6.03;;
38843;SDS011;24596;48.080;8.362;2022-07-24T13:33:04;7.37;;;6.03;;
38843;SDS011;24596;48.080;8.362;2022-07-24T13:35:30;8.50;;;5.43;;
38843;SDS011;24596;48.080;8.362;2022-07-24T13:37:55;9.07;;;5.80;;
38843;SDS011;24596;48.080;8.362;2022-07-24T13:40:20;7.95;;;5.68;;
38843;SDS011;24596;48.080;8.362;2022-07-24T13:42:45;10.93;;;6.50;;
38843;SDS011;24596;48.080;8.362;2022-07-24T13:45:11;10.00;;;6.20;;
38843;SDS011;24596;48.080;8.362;2022-07-24T13:47:36;8.30;;;5.47;;
38843;SDS011;24596;48.080;8.362;2022-07-24T13:50:01;7.53;;;5.50;;
38843;SDS011;24596;48.080;8.362;2022-07-24T13:52:26;9.75;;;5.22;;
38843;SDS011;24596;48.080;8.362;2022-07-24T13:54:52;8.25;;;6.00;;
38843;SDS011;24596;48.080;8.362;2022-07-24T13:57:17;9.43;;;5.60;;
38843;SDS011;24596;48.080;8.362;2022-07-24T13:59:42;7.00;;;5.30;;
38843;SDS011;24596;48.080;8.362;2022-07-24T14:02:07;7.33;;;5.37;;
38843;SDS011;24596;48.080;8.362;2022-07-24T14:04:32;7.23;;;5.37;;
38843;SDS011;24596;48.080;8.362;2022-07-24T14:06:58;8.57;;;5.93;;
38843;SDS011;24596;48.080;8.362;2022-07-24T14:09:23;8.27;;;6.00;;
38843;SDS011;24596;48.080;8.362;2022-07-24T14:11:49;8.43;;;5.55;;
38843;SDS011;24596;48.080;8.362;2022-07-24T14:14:14;7.40;;;5.50;;
38843;SDS011;24596;48.080;8.362;2022-07-24T14:16:40;7.65;;;5.95;;
38843;SDS011;24596;48.080;8.362;2022-07-24T14:19:05;8.00;;;5.60;;
38843;SDS011;24596;48.080;8.362;2022-07-24T14:21:30;10.47;;;6.10;;
38843;SDS011;24596;48.080;8.362;2022-07-24T14:23:58;9.55;;;5.90;;
38843;SDS011;24596;48.080;8.362;2022-07-24T14:26:26;9.63;;;5.80;;
38843;SDS011;24596;48.080;8.362;2022-07-24T14:28:52;7.50;;;5.45;;
38843;SDS011;24596;48.080;8.362;2022-07-24T14:31:17;8.13;;;6.07;;
38843;SDS011;24596;48.080;8.362;2022-07-24T14:33:42;8.23;;;6.43;;
38843;SDS011;24596;48.080;8.362;2022-07-24T14:36:07;9.13;;;5.70;;
38843;SDS011;24596;48.080;8.362;2022-07-24T14:38:33;11.32;;;5.93;;
38843;SDS011;24596;48.080;8.362;2022-07-24T14:40:58;8.57;;;5.60;;
38843;SDS011;24596;48.080;8.362;2022-07-24T14:43:23;7.20;;;5.47;;
38843;SDS011;24596;48.080;8.362;2022-07-24T14:45:48;7.93;;;5.68;;
38843;SDS011;24596;48.080;8.362;2022-07-24T14:48:14;7.73;;;5.83;;
38843;SDS011;24596;48.080;8.362;2022-07-24T14:50:39;9.57;;;5.90;;